MMGM

Details ICAO MMGM (GYM)
Name GENERAL JOSE MARIA YANEZ INTL
Region Mexico
Timezone America/Hermosillo (UTC-7.0)
Plans Departing 8
Arriving 15
Stats Elevation 59 ft / 18 m (AMSL)
Location 27.968985° -110.925169°
Runways 1
Magnetic Variation 9.175° E
Sunrise 2018-05-26 12:30:37 UTC / 2018-05-26 05:30:37 Local
Sunset 2018-05-27 02:13:49 UTC / 2018-05-26 19:13:49 Local
Advertisement - Login to hide

Runways

ID Width Length Bearing (true) Bearing (mag) Surface Threshold Offset Overrun Length
02 148 ft / 45 m 7,706 ft / 2,349 m 29.28° 20.10° Asphalt 0 ft / 0 m 212 ft / 65 m
20 148 ft / 45 m 7,706 ft / 2,349 m 209.29° 200.11° Asphalt 0 ft / 0 m 212 ft / 65 m

Map

Weather


0- 5 10 15 20 25 30 35+ Temperature / ° C

Clouds and Precipitation
Forecast for 2018-05-27 00:00 UTC. Updated 2 hours ago

Ground ~20,000 ft ~40,000 ft Winds

METAR

MMGM 270047Z 35014KT 10SM BKN200 36/07 A2967 RMK 8/008

TAF

Not found

Frequencies

Tower 118.60 MHz GUAYMAS TWR
Approach 121.30 MHz HERMOSILLO APP
Warning: Do not use this data for real-world aviation or navigation. No guarantee of current accuracy is given.